sensor_id;sensor_type;location;lat;lon;timestamp;P1;durP1;ratioP1;P2;durP2;ratioP2
12177;SDS011;6152;48.728;9.256;2022-11-09T00:01:22;7.70;;;5.82;;
12177;SDS011;6152;48.728;9.256;2022-11-09T00:03:57;9.45;;;5.45;;
12177;SDS011;6152;48.728;9.256;2022-11-09T00:06:25;5.82;;;5.15;;
12177;SDS011;6152;48.728;9.256;2022-11-09T00:08:53;6.78;;;5.45;;
12177;SDS011;6152;48.728;9.256;2022-11-09T00:11:19;6.40;;;5.22;;
12177;SDS011;6152;48.728;9.256;2022-11-09T00:13:46;5.93;;;5.00;;
12177;SDS011;6152;48.728;9.256;2022-11-09T00:16:15;7.03;;;5.15;;
12177;SDS011;6152;48.728;9.256;2022-11-09T00:18:43;5.80;;;4.82;;
12177;SDS011;6152;48.728;9.256;2022-11-09T00:21:13;8.90;;;5.68;;
12177;SDS011;6152;48.728;9.256;2022-11-09T00:23:44;8.82;;;5.30;;
12177;SDS011;6152;48.728;9.256;2022-11-09T00:26:11;6.50;;;4.88;;
12177;SDS011;6152;48.728;9.256;2022-11-09T00:28:38;5.53;;;4.95;;
12177;SDS011;6152;48.728;9.256;2022-11-09T00:31:06;11.82;;;5.30;;
12177;SDS011;6152;48.728;9.256;2022-11-09T00:33:35;8.02;;;5.32;;
12177;SDS011;6152;48.728;9.256;2022-11-09T00:36:03;6.57;;;4.72;;
12177;SDS011;6152;48.728;9.256;2022-11-09T00:38:31;7.07;;;5.07;;
12177;SDS011;6152;48.728;9.256;2022-11-09T00:41:03;9.18;;;5.20;;
12177;SDS011;6152;48.728;9.256;2022-11-09T00:43:30;7.25;;;5.15;;
12177;SDS011;6152;48.728;9.256;2022-11-09T00:45:57;7.93;;;5.43;;
12177;SDS011;6152;48.728;9.256;2022-11-09T00:48:23;8.65;;;5.13;;
12177;SDS011;6152;48.728;9.256;2022-11-09T00:50:53;5.60;;;4.88;;
12177;SDS011;6152;48.728;9.256;2022-11-09T00:53:20;6.38;;;4.63;;
12177;SDS011;6152;48.728;9.256;2022-11-09T00:55:53;5.93;;;4.50;;
12177;SDS011;6152;48.728;9.256;2022-11-09T00:58:21;7.10;;;4.70;;
12177;SDS011;6152;48.728;9.256;2022-11-09T01:00:48;6.10;;;4.60;;
12177;SDS011;6152;48.728;9.256;2022-11-09T01:03:15;4.65;;;4.25;;
12177;SDS011;6152;48.728;9.256;2022-11-09T01:05:41;5.85;;;4.28;;
12177;SDS011;6152;48.728;9.256;2022-11-09T01:08:07;7.25;;;4.47;;
12177;SDS011;6152;48.728;9.256;2022-11-09T01:10:34;6.68;;;4.70;;
12177;SDS011;6152;48.728;9.256;2022-11-09T01:13:03;7.57;;;4.90;;
12177;SDS011;6152;48.728;9.256;2022-11-09T01:15:29;7.10;;;5.15;;
12177;SDS011;6152;48.728;9.256;2022-11-09T01:17:56;6.32;;;4.78;;
12177;SDS011;6152;48.728;9.256;2022-11-09T01:20:22;5.60;;;5.00;;
12177;SDS011;6152;48.728;9.256;2022-11-09T01:22:48;9.85;;;5.47;;
12177;SDS011;6152;48.728;9.256;2022-11-09T01:25:15;6.90;;;5.30;;
12177;SDS011;6152;48.728;9.256;2022-11-09T01:27:41;5.88;;;5.13;;
12177;SDS011;6152;48.728;9.256;2022-11-09T01:30:07;8.40;;;5.28;;
12177;SDS011;6152;48.728;9.256;2022-11-09T01:32:33;6.20;;;5.00;;
12177;SDS011;6152;48.728;9.256;2022-11-09T01:34:59;8.07;;;5.43;;
12177;SDS011;6152;48.728;9.256;2022-11-09T01:37:26;8.43;;;5.50;;
12177;SDS011;6152;48.728;9.256;2022-11-09T01:39:52;11.02;;;5.70;;
12177;SDS011;6152;48.728;9.256;2022-11-09T01:42:27;7.85;;;4.97;;
12177;SDS011;6152;48.728;9.256;2022-11-09T01:47:42;7.30;;;5.35;;
12177;SDS011;6152;48.728;9.256;2022-11-09T01:50:11;7.93;;;5.35;;
12177;SDS011;6152;48.728;9.256;2022-11-09T01:52:41;8.65;;;5.32;;
12177;SDS011;6152;48.728;9.256;2022-11-09T01:55:17;10.93;;;6.20;;
12177;SDS011;6152;48.728;9.256;2022-11-09T01:57:51;6.63;;;4.68;;
12177;SDS011;6152;48.728;9.256;2022-11-09T02:00:28;8.48;;;5.00;;
12177;SDS011;6152;48.728;9.256;2022-11-09T02:02:59;6.88;;;5.25;;
12177;SDS011;6152;48.728;9.256;2022-11-09T02:05:43;6.50;;;4.78;;
12177;SDS011;6152;48.728;9.256;2022-11-09T02:08:11;6.05;;;5.00;;
12177;SDS011;6152;48.728;9.256;2022-11-09T02:10:56;6.78;;;5.20;;
12177;SDS011;6152;48.728;9.256;2022-11-09T02:13:31;6.07;;;4.75;;
12177;SDS011;6152;48.728;9.256;2022-11-09T02:15:58;6.05;;;4.70;;
12177;SDS011;6152;48.728;9.256;2022-11-09T02:18:25;4.97;;;4.15;;
12177;SDS011;6152;48.728;9.256;2022-11-09T02:20:52;5.65;;;4.55;;
12177;SDS011;6152;48.728;9.256;2022-11-09T02:23:21;8.23;;;4.60;;
12177;SDS011;6152;48.728;9.256;2022-11-09T02:25:53;5.20;;;4.70;;
12177;SDS011;6152;48.728;9.256;2022-11-09T02:28:25;6.75;;;4.57;;
12177;SDS011;6152;48.728;9.256;2022-11-09T02:30:53;4.68;;;4.28;;
12177;SDS011;6152;48.728;9.256;2022-11-09T02:33:21;4.93;;;4.10;;
12177;SDS011;6152;48.728;9.256;2022-11-09T02:35:47;6.47;;;4.63;;
12177;SDS011;6152;48.728;9.256;2022-11-09T02:38:13;4.72;;;3.60;;
12177;SDS011;6152;48.728;9.256;2022-11-09T02:40:40;3.70;;;3.40;;
12177;SDS011;6152;48.728;9.256;2022-11-09T02:43:11;2.80;;;2.60;;
12177;SDS011;6152;48.728;9.256;2022-11-09T02:45:39;4.93;;;2.90;;
12177;SDS011;6152;48.728;9.256;2022-11-09T02:48:05;2.58;;;2.38;;
12177;SDS011;6152;48.728;9.256;2022-11-09T02:50:31;2.42;;;2.13;;
12177;SDS011;6152;48.728;9.256;2022-11-09T02:52:57;3.65;;;2.08;;
12177;SDS011;6152;48.728;9.256;2022-11-09T02:55:23;2.28;;;2.08;;
12177;SDS011;6152;48.728;9.256;2022-11-09T02:57:49;3.08;;;1.65;;
12177;SDS011;6152;48.728;9.256;2022-11-09T03:00:16;4.55;;;1.73;;
12177;SDS011;6152;48.728;9.256;2022-11-09T03:02:42;2.88;;;1.63;;
12177;SDS011;6152;48.728;9.256;2022-11-09T03:05:08;1.58;;;1.40;;
12177;SDS011;6152;48.728;9.256;2022-11-09T03:07:34;3.60;;;1.95;;
12177;SDS011;6152;48.728;9.256;2022-11-09T03:10:00;2.40;;;1.55;;
12177;SDS011;6152;48.728;9.256;2022-11-09T03:12:26;3.35;;;1.90;;
12177;SDS011;6152;48.728;9.256;2022-11-09T03:14:53;2.10;;;1.90;;
12177;SDS011;6152;48.728;9.256;2022-11-09T03:17:20;1.88;;;1.75;;
12177;SDS011;6152;48.728;9.256;2022-11-09T03:19:46;2.35;;;1.80;;
12177;SDS011;6152;48.728;9.256;2022-11-09T03:22:12;2.70;;;1.73;;
12177;SDS011;6152;48.728;9.256;2022-11-09T03:24:39;3.72;;;1.65;;
12177;SDS011;6152;48.728;9.256;2022-11-09T03:27:05;1.83;;;1.65;;
12177;SDS011;6152;48.728;9.256;2022-11-09T03:29:31;3.40;;;1.90;;
12177;SDS011;6152;48.728;9.256;2022-11-09T03:31:57;2.25;;;1.65;;
12177;SDS011;6152;48.728;9.256;2022-11-09T03:34:24;3.53;;;1.60;;
12177;SDS011;6152;48.728;9.256;2022-11-09T03:36:50;1.33;;;1.23;;
12177;SDS011;6152;48.728;9.256;2022-11-09T03:39:16;2.47;;;1.55;;
12177;SDS011;6152;48.728;9.256;2022-11-09T03:41:42;2.03;;;1.70;;
12177;SDS011;6152;48.728;9.256;2022-11-09T03:44:08;2.25;;;1.60;;
12177;SDS011;6152;48.728;9.256;2022-11-09T03:46:34;3.00;;;1.70;;
12177;SDS011;6152;48.728;9.256;2022-11-09T03:49:00;2.75;;;2.35;;
12177;SDS011;6152;48.728;9.256;2022-11-09T03:51:26;3.50;;;2.28;;
12177;SDS011;6152;48.728;9.256;2022-11-09T03:53:53;5.05;;;2.13;;
12177;SDS011;6152;48.728;9.256;2022-11-09T03:56:19;2.50;;;2.10;;
12177;SDS011;6152;48.728;9.256;2022-11-09T03:58:45;2.92;;;2.03;;
12177;SDS011;6152;48.728;9.256;2022-11-09T04:01:11;3.00;;;1.95;;
12177;SDS011;6152;48.728;9.256;2022-11-09T04:03:37;3.45;;;2.17;;
12177;SDS011;6152;48.728;9.256;2022-11-09T04:06:03;3.75;;;2.08;;
12177;SDS011;6152;48.728;9.256;2022-11-09T04:08:29;1.63;;;1.52;;
12177;SDS011;6152;48.728;9.256;2022-11-09T04:10:55;2.05;;;1.85;;
12177;SDS011;6152;48.728;9.256;2022-11-09T04:13:22;2.65;;;2.05;;
12177;SDS011;6152;48.728;9.256;2022-11-09T04:15:48;3.08;;;2.30;;
12177;SDS011;6152;48.728;9.256;2022-11-09T04:18:15;2.42;;;2.15;;
12177;SDS011;6152;48.728;9.256;2022-11-09T04:20:42;5.05;;;2.15;;
12177;SDS011;6152;48.728;9.256;2022-11-09T04:23:10;3.03;;;2.40;;
12177;SDS011;6152;48.728;9.256;2022-11-09T04:25:37;6.43;;;2.50;;
12177;SDS011;6152;48.728;9.256;2022-11-09T04:28:05;3.40;;;3.00;;
12177;SDS011;6152;48.728;9.256;2022-11-09T04:30:34;4.75;;;3.00;;
12177;SDS011;6152;48.728;9.256;2022-11-09T04:33:01;6.00;;;2.70;;
12177;SDS011;6152;48.728;9.256;2022-11-09T04:35:28;4.90;;;2.85;;
12177;SDS011;6152;48.728;9.256;2022-11-09T04:37:57;3.97;;;2.80;;
12177;SDS011;6152;48.728;9.256;2022-11-09T04:40:25;3.55;;;3.03;;
12177;SDS011;6152;48.728;9.256;2022-11-09T04:42:53;6.80;;;2.83;;
12177;SDS011;6152;48.728;9.256;2022-11-09T04:45:20;5.75;;;3.15;;
12177;SDS011;6152;48.728;9.256;2022-11-09T04:47:47;6.03;;;3.40;;
12177;SDS011;6152;48.728;9.256;2022-11-09T04:50:13;5.75;;;3.17;;
12177;SDS011;6152;48.728;9.256;2022-11-09T04:52:39;3.70;;;3.28;;
12177;SDS011;6152;48.728;9.256;2022-11-09T04:55:05;4.30;;;3.30;;
12177;SDS011;6152;48.728;9.256;2022-11-09T04:57:32;3.90;;;3.25;;
12177;SDS011;6152;48.728;9.256;2022-11-09T04:59:58;5.63;;;3.65;;
12177;SDS011;6152;48.728;9.256;2022-11-09T05:02:24;9.25;;;4.03;;
12177;SDS011;6152;48.728;9.256;2022-11-09T05:04:50;7.07;;;3.97;;
12177;SDS011;6152;48.728;9.256;2022-11-09T05:07:16;5.65;;;4.20;;
12177;SDS011;6152;48.728;9.256;2022-11-09T05:09:42;6.15;;;4.22;;
12177;SDS011;6152;48.728;9.256;2022-11-09T05:12:09;6.60;;;3.88;;
12177;SDS011;6152;48.728;9.256;2022-11-09T05:14:38;7.55;;;4.38;;
12177;SDS011;6152;48.728;9.256;2022-11-09T05:17:04;6.60;;;4.05;;
12177;SDS011;6152;48.728;9.256;2022-11-09T05:19:32;5.30;;;3.90;;
12177;SDS011;6152;48.728;9.256;2022-11-09T05:21:59;5.60;;;3.90;;
12177;SDS011;6152;48.728;9.256;2022-11-09T05:24:43;4.57;;;4.18;;
12177;SDS011;6152;48.728;9.256;2022-11-09T05:27:10;6.65;;;4.13;;
12177;SDS011;6152;48.728;9.256;2022-11-09T05:29:36;8.18;;;4.13;;
12177;SDS011;6152;48.728;9.256;2022-11-09T05:32:02;7.18;;;4.13;;
12177;SDS011;6152;48.728;9.256;2022-11-09T05:34:28;4.82;;;3.95;;
12177;SDS011;6152;48.728;9.256;2022-11-09T05:36:54;4.95;;;4.45;;
12177;SDS011;6152;48.728;9.256;2022-11-09T05:39:21;4.18;;;3.78;;
12177;SDS011;6152;48.728;9.256;2022-11-09T05:41:47;7.00;;;4.70;;
12177;SDS011;6152;48.728;9.256;2022-11-09T05:44:13;8.32;;;4.30;;
12177;SDS011;6152;48.728;9.256;2022-11-09T05:46:39;7.47;;;4.85;;
12177;SDS011;6152;48.728;9.256;2022-11-09T05:49:05;5.53;;;4.50;;
12177;SDS011;6152;48.728;9.256;2022-11-09T05:51:31;8.02;;;4.93;;
12177;SDS011;6152;48.728;9.256;2022-11-09T05:53:57;6.43;;;5.20;;
12177;SDS011;6152;48.728;9.256;2022-11-09T05:56:23;5.65;;;4.32;;
12177;SDS011;6152;48.728;9.256;2022-11-09T05:58:49;6.90;;;4.63;;
12177;SDS011;6152;48.728;9.256;2022-11-09T06:01:16;5.97;;;4.65;;
12177;SDS011;6152;48.728;9.256;2022-11-09T06:03:43;5.88;;;4.78;;
12177;SDS011;6152;48.728;9.256;2022-11-09T06:06:11;6.97;;;4.85;;
12177;SDS011;6152;48.728;9.256;2022-11-09T06:08:38;6.07;;;5.07;;
12177;SDS011;6152;48.728;9.256;2022-11-09T06:11:06;8.30;;;5.22;;
12177;SDS011;6152;48.728;9.256;2022-11-09T06:13:35;6.47;;;4.97;;
12177;SDS011;6152;48.728;9.256;2022-11-09T06:16:02;7.97;;;5.47;;
12177;SDS011;6152;48.728;9.256;2022-11-09T06:18:30;7.40;;;5.40;;
12177;SDS011;6152;48.728;9.256;2022-11-09T06:20:58;6.40;;;5.38;;
12177;SDS011;6152;48.728;9.256;2022-11-09T06:23:25;6.20;;;5.03;;
12177;SDS011;6152;48.728;9.256;2022-11-09T06:28:27;7.55;;;5.43;;
12177;SDS011;6152;48.728;9.256;2022-11-09T06:30:59;8.05;;;6.18;;
12177;SDS011;6152;48.728;9.256;2022-11-09T06:33:28;10.18;;;6.18;;
12177;SDS011;6152;48.728;9.256;2022-11-09T06:35:56;9.05;;;6.57;;
12177;SDS011;6152;48.728;9.256;2022-11-09T06:38:23;8.98;;;7.20;;
12177;SDS011;6152;48.728;9.256;2022-11-09T06:40:53;8.77;;;6.95;;
12177;SDS011;6152;48.728;9.256;2022-11-09T06:43:20;9.55;;;6.55;;
12177;SDS011;6152;48.728;9.256;2022-11-09T06:45:47;7.00;;;6.30;;
12177;SDS011;6152;48.728;9.256;2022-11-09T06:48:14;6.63;;;5.82;;
12177;SDS011;6152;48.728;9.256;2022-11-09T06:50:40;8.35;;;6.88;;
12177;SDS011;6152;48.728;9.256;2022-11-09T06:53:08;7.15;;;5.57;;
12177;SDS011;6152;48.728;9.256;2022-11-09T06:55:37;7.43;;;6.28;;
12177;SDS011;6152;48.728;9.256;2022-11-09T06:58:13;9.95;;;6.38;;
12177;SDS011;6152;48.728;9.256;2022-11-09T07:00:40;7.57;;;6.32;;
12177;SDS011;6152;48.728;9.256;2022-11-09T07:03:08;8.43;;;6.35;;
12177;SDS011;6152;48.728;9.256;2022-11-09T07:05:39;9.32;;;6.35;;
12177;SDS011;6152;48.728;9.256;2022-11-09T07:08:06;7.57;;;6.35;;
12177;SDS011;6152;48.728;9.256;2022-11-09T07:10:32;6.25;;;5.47;;
12177;SDS011;6152;48.728;9.256;2022-11-09T07:12:58;8.48;;;5.80;;
12177;SDS011;6152;48.728;9.256;2022-11-09T07:15:27;6.97;;;5.60;;
12177;SDS011;6152;48.728;9.256;2022-11-09T07:17:56;7.07;;;6.00;;
12177;SDS011;6152;48.728;9.256;2022-11-09T07:20:23;8.13;;;5.88;;
12177;SDS011;6152;48.728;9.256;2022-11-09T07:22:49;7.78;;;5.68;;
12177;SDS011;6152;48.728;9.256;2022-11-09T07:25:16;7.85;;;5.90;;
12177;SDS011;6152;48.728;9.256;2022-11-09T07:27:43;6.75;;;5.97;;
12177;SDS011;6152;48.728;9.256;2022-11-09T07:30:09;9.13;;;6.38;;
12177;SDS011;6152;48.728;9.256;2022-11-09T07:32:36;7.63;;;5.88;;
12177;SDS011;6152;48.728;9.256;2022-11-09T07:35:04;7.70;;;5.35;;
12177;SDS011;6152;48.728;9.256;2022-11-09T07:37:31;6.75;;;4.95;;
12177;SDS011;6152;48.728;9.256;2022-11-09T07:39:57;5.88;;;4.43;;
12177;SDS011;6152;48.728;9.256;2022-11-09T07:42:23;4.03;;;3.45;;
12177;SDS011;6152;48.728;9.256;2022-11-09T07:44:50;4.90;;;3.15;;
12177;SDS011;6152;48.728;9.256;2022-11-09T07:47:17;3.78;;;2.85;;
12177;SDS011;6152;48.728;9.256;2022-11-09T07:49:43;3.13;;;2.13;;
12177;SDS011;6152;48.728;9.256;2022-11-09T07:52:10;2.97;;;2.08;;
12177;SDS011;6152;48.728;9.256;2022-11-09T07:54:37;3.40;;;2.42;;
12177;SDS011;6152;48.728;9.256;2022-11-09T07:57:04;5.15;;;2.50;;
12177;SDS011;6152;48.728;9.256;2022-11-09T07:59:31;3.95;;;2.90;;
12177;SDS011;6152;48.728;9.256;2022-11-09T08:01:57;3.55;;;2.33;;
12177;SDS011;6152;48.728;9.256;2022-11-09T08:04:23;5.47;;;3.10;;
12177;SDS011;6152;48.728;9.256;2022-11-09T08:06:52;3.70;;;2.72;;
12177;SDS011;6152;48.728;9.256;2022-11-09T08:09:18;5.38;;;3.20;;
12177;SDS011;6152;48.728;9.256;2022-11-09T08:11:45;3.97;;;2.83;;
12177;SDS011;6152;48.728;9.256;2022-11-09T08:14:11;3.80;;;3.00;;
12177;SDS011;6152;48.728;9.256;2022-11-09T08:16:37;3.17;;;2.85;;
12177;SDS011;6152;48.728;9.256;2022-11-09T08:19:03;4.00;;;3.60;;
12177;SDS011;6152;48.728;9.256;2022-11-09T08:21:33;5.57;;;3.55;;
12177;SDS011;6152;48.728;9.256;2022-11-09T08:24:00;4.90;;;3.75;;
12177;SDS011;6152;48.728;9.256;2022-11-09T08:26:27;3.83;;;3.40;;
12177;SDS011;6152;48.728;9.256;2022-11-09T08:28:53;6.13;;;3.72;;
12177;SDS011;6152;48.728;9.256;2022-11-09T08:31:19;5.28;;;4.25;;
12177;SDS011;6152;48.728;9.256;2022-11-09T08:33:46;4.55;;;4.10;;
12177;SDS011;6152;48.728;9.256;2022-11-09T08:36:15;8.15;;;4.60;;
12177;SDS011;6152;48.728;9.256;2022-11-09T08:38:43;8.18;;;4.45;;
12177;SDS011;6152;48.728;9.256;2022-11-09T08:41:10;8.85;;;4.78;;
12177;SDS011;6152;48.728;9.256;2022-11-09T08:43:37;6.80;;;4.63;;
12177;SDS011;6152;48.728;9.256;2022-11-09T08:46:03;5.75;;;5.00;;
12177;SDS011;6152;48.728;9.256;2022-11-09T08:48:29;6.82;;;4.60;;
12177;SDS011;6152;48.728;9.256;2022-11-09T08:50:57;6.32;;;5.15;;
12177;SDS011;6152;48.728;9.256;2022-11-09T08:53:24;6.00;;;4.30;;
12177;SDS011;6152;48.728;9.256;2022-11-09T08:55:51;5.28;;;4.63;;
12177;SDS011;6152;48.728;9.256;2022-11-09T08:58:18;7.32;;;5.15;;
12177;SDS011;6152;48.728;9.256;2022-11-09T09:00:44;6.68;;;4.72;;
12177;SDS011;6152;48.728;9.256;2022-11-09T09:03:11;7.75;;;4.95;;
12177;SDS011;6152;48.728;9.256;2022-11-09T09:05:37;5.30;;;4.57;;
12177;SDS011;6152;48.728;9.256;2022-11-09T09:08:04;7.25;;;4.50;;
12177;SDS011;6152;48.728;9.256;2022-11-09T09:10:31;4.78;;;4.00;;
12177;SDS011;6152;48.728;9.256;2022-11-09T09:12:59;3.78;;;3.13;;
12177;SDS011;6152;48.728;9.256;2022-11-09T09:15:26;7.35;;;2.60;;
12177;SDS011;6152;48.728;9.256;2022-11-09T09:17:52;2.72;;;2.22;;
12177;SDS011;6152;48.728;9.256;2022-11-09T09:20:18;1.98;;;1.88;;
12177;SDS011;6152;48.728;9.256;2022-11-09T09:22:45;3.25;;;2.60;;
12177;SDS011;6152;48.728;9.256;2022-11-09T09:25:11;3.53;;;2.05;;
12177;SDS011;6152;48.728;9.256;2022-11-09T09:27:37;2.15;;;1.92;;
12177;SDS011;6152;48.728;9.256;2022-11-09T09:30:03;1.83;;;1.73;;
12177;SDS011;6152;48.728;9.256;2022-11-09T09:32:30;2.53;;;2.03;;
12177;SDS011;6152;48.728;9.256;2022-11-09T09:34:56;2.80;;;2.42;;
12177;SDS011;6152;48.728;9.256;2022-11-09T09:37:22;3.15;;;2.72;;
12177;SDS011;6152;48.728;9.256;2022-11-09T09:39:49;3.17;;;2.58;;
12177;SDS011;6152;48.728;9.256;2022-11-09T09:42:16;4.15;;;2.83;;
12177;SDS011;6152;48.728;9.256;2022-11-09T09:50:07;2.85;;;2.65;;
12177;SDS011;6152;48.728;9.256;2022-11-09T09:58:05;3.28;;;2.70;;
12177;SDS011;6152;48.728;9.256;2022-11-09T10:00:38;3.30;;;2.20;;
12177;SDS011;6152;48.728;9.256;2022-11-09T10:03:05;5.32;;;3.28;;
12177;SDS011;6152;48.728;9.256;2022-11-09T10:05:47;3.83;;;2.63;;
12177;SDS011;6152;48.728;9.256;2022-11-09T10:08:20;3.00;;;2.47;;
12177;SDS011;6152;48.728;9.256;2022-11-09T10:11:12;2.70;;;2.50;;
12177;SDS011;6152;48.728;9.256;2022-11-09T10:13:54;3.58;;;2.70;;
12177;SDS011;6152;48.728;9.256;2022-11-09T10:16:40;2.67;;;2.40;;
12177;SDS011;6152;48.728;9.256;2022-11-09T10:19:46;3.20;;;2.30;;
12177;SDS011;6152;48.728;9.256;2022-11-09T10:22:29;2.22;;;2.03;;
12177;SDS011;6152;48.728;9.256;2022-11-09T10:25:13;2.83;;;1.70;;
12177;SDS011;6152;48.728;9.256;2022-11-09T10:27:54;1.70;;;1.60;;
12177;SDS011;6152;48.728;9.256;2022-11-09T10:30:24;2.88;;;1.88;;
12177;SDS011;6152;48.728;9.256;2022-11-09T10:33:34;3.78;;;1.50;;
12177;SDS011;6152;48.728;9.256;2022-11-09T10:38:34;2.90;;;1.20;;
12177;SDS011;6152;48.728;9.256;2022-11-09T10:41:23;1.15;;;1.02;;
12177;SDS011;6152;48.728;9.256;2022-11-09T10:43:55;1.38;;;1.00;;
12177;SDS011;6152;48.728;9.256;2022-11-09T10:46:22;1.17;;;0.90;;
12177;SDS011;6152;48.728;9.256;2022-11-09T10:48:48;1.63;;;1.00;;
12177;SDS011;6152;48.728;9.256;2022-11-09T10:54:14;1.85;;;0.77;;
12177;SDS011;6152;48.728;9.256;2022-11-09T10:56:46;1.48;;;1.08;;
12177;SDS011;6152;48.728;9.256;2022-11-09T11:02:35;0.98;;;0.88;;
12177;SDS011;6152;48.728;9.256;2022-11-09T11:05:35;1.23;;;0.93;;
12177;SDS011;6152;48.728;9.256;2022-11-09T11:07:42;0.75;;;0.50;;
12177;SDS011;6152;48.728;9.256;2022-11-09T11:12:51;1.85;;;0.80;;
12177;SDS011;6152;48.728;9.256;2022-11-09T11:17:59;1.75;;;0.93;;
12177;SDS011;6152;48.728;9.256;2022-11-09T11:20:36;0.88;;;0.80;;
12177;SDS011;6152;48.728;9.256;2022-11-09T11:28:43;1.05;;;0.90;;
12177;SDS011;6152;48.728;9.256;2022-11-09T11:31:16;1.60;;;0.88;;
12177;SDS011;6152;48.728;9.256;2022-11-09T11:33:44;0.80;;;0.80;;
12177;SDS011;6152;48.728;9.256;2022-11-09T11:36:14;1.60;;;0.88;;
12177;SDS011;6152;48.728;9.256;2022-11-09T11:41:35;1.95;;;1.00;;
12177;SDS011;6152;48.728;9.256;2022-11-09T11:52:05;1.73;;;0.88;;
12177;SDS011;6152;48.728;9.256;2022-11-09T12:00:24;1.67;;;0.90;;
12177;SDS011;6152;48.728;9.256;2022-11-09T12:08:14;3.35;;;0.85;;
12177;SDS011;6152;48.728;9.256;2022-11-09T12:11:11;1.23;;;0.88;;
12177;SDS011;6152;48.728;9.256;2022-11-09T12:14:26;0.98;;;0.95;;
12177;SDS011;6152;48.728;9.256;2022-11-09T12:16:32;2.28;;;0.93;;
12177;SDS011;6152;48.728;9.256;2022-11-09T12:29:55;1.90;;;0.82;;
12177;SDS011;6152;48.728;9.256;2022-11-09T12:40:46;2.25;;;1.10;;
12177;SDS011;6152;48.728;9.256;2022-11-09T12:43:26;1.15;;;0.90;;
12177;SDS011;6152;48.728;9.256;2022-11-09T12:46:01;3.72;;;1.45;;
12177;SDS011;6152;48.728;9.256;2022-11-09T12:48:33;1.85;;;1.00;;
12177;SDS011;6152;48.728;9.256;2022-11-09T12:51:00;1.08;;;1.00;;
12177;SDS011;6152;48.728;9.256;2022-11-09T12:53:32;1.48;;;1.35;;
12177;SDS011;6152;48.728;9.256;2022-11-09T12:58:36;2.50;;;0.88;;
12177;SDS011;6152;48.728;9.256;2022-11-09T13:01:04;1.00;;;0.90;;
12177;SDS011;6152;48.728;9.256;2022-11-09T13:03:37;1.10;;;1.10;;
12177;SDS011;6152;48.728;9.256;2022-11-09T13:09:05;1.42;;;1.15;;
12177;SDS011;6152;48.728;9.256;2022-11-09T13:11:39;2.17;;;1.40;;
12177;SDS011;6152;48.728;9.256;2022-11-09T13:14:55;0.80;;;0.80;;
12177;SDS011;6152;48.728;9.256;2022-11-09T13:17:49;3.33;;;0.93;;
12177;SDS011;6152;48.728;9.256;2022-11-09T13:19:51;1.52;;;0.90;;
12177;SDS011;6152;48.728;9.256;2022-11-09T13:24:57;2.05;;;1.08;;
12177;SDS011;6152;48.728;9.256;2022-11-09T13:30:34;1.88;;;0.80;;
12177;SDS011;6152;48.728;9.256;2022-11-09T13:38:19;1.25;;;0.73;;
12177;SDS011;6152;48.728;9.256;2022-11-09T13:48:23;0.90;;;0.60;;
12177;SDS011;6152;48.728;9.256;2022-11-09T13:51:20;0.93;;;0.75;;
12177;SDS011;6152;48.728;9.256;2022-11-09T13:54:04;0.75;;;0.60;;
12177;SDS011;6152;48.728;9.256;2022-11-09T13:56:49;1.73;;;0.90;;
12177;SDS011;6152;48.728;9.256;2022-11-09T13:59:27;2.13;;;0.98;;
12177;SDS011;6152;48.728;9.256;2022-11-09T14:01:58;1.67;;;1.00;;
12177;SDS011;6152;48.728;9.256;2022-11-09T14:04:29;1.20;;;1.10;;
12177;SDS011;6152;48.728;9.256;2022-11-09T14:09:29;1.40;;;1.02;;
12177;SDS011;6152;48.728;9.256;2022-11-09T14:12:26;0.80;;;0.80;;
12177;SDS011;6152;48.728;9.256;2022-11-09T14:20:50;1.95;;;0.90;;
12177;SDS011;6152;48.728;9.256;2022-11-09T14:23:29;1.08;;;0.98;;
12177;SDS011;6152;48.728;9.256;2022-11-09T14:25:56;1.40;;;1.35;;
12177;SDS011;6152;48.728;9.256;2022-11-09T14:28:30;1.20;;;1.05;;
12177;SDS011;6152;48.728;9.256;2022-11-09T14:30:58;1.38;;;0.85;;
12177;SDS011;6152;48.728;9.256;2022-11-09T14:33:27;2.45;;;1.10;;
12177;SDS011;6152;48.728;9.256;2022-11-09T14:35:57;0.95;;;0.93;;
12177;SDS011;6152;48.728;9.256;2022-11-09T14:38:44;1.42;;;0.90;;
12177;SDS011;6152;48.728;9.256;2022-11-09T14:41:17;2.03;;;0.90;;
12177;SDS011;6152;48.728;9.256;2022-11-09T14:43:55;1.20;;;1.10;;
12177;SDS011;6152;48.728;9.256;2022-11-09T14:46:24;0.93;;;0.93;;
12177;SDS011;6152;48.728;9.256;2022-11-09T14:48:56;2.05;;;1.00;;
12177;SDS011;6152;48.728;9.256;2022-11-09T14:51:32;1.02;;;1.00;;
12177;SDS011;6152;48.728;9.256;2022-11-09T14:54:10;1.00;;;1.00;;
12177;SDS011;6152;48.728;9.256;2022-11-09T14:56:38;3.35;;;1.20;;
12177;SDS011;6152;48.728;9.256;2022-11-09T14:59:07;1.45;;;1.17;;
12177;SDS011;6152;48.728;9.256;2022-11-09T15:01:38;1.52;;;1.42;;
12177;SDS011;6152;48.728;9.256;2022-11-09T15:04:14;2.13;;;1.60;;
12177;SDS011;6152;48.728;9.256;2022-11-09T15:06:59;2.60;;;1.50;;
12177;SDS011;6152;48.728;9.256;2022-11-09T15:09:49;1.65;;;1.55;;
12177;SDS011;6152;48.728;9.256;2022-11-09T15:12:25;1.88;;;1.55;;
12177;SDS011;6152;48.728;9.256;2022-11-09T15:14:57;2.22;;;1.55;;
12177;SDS011;6152;48.728;9.256;2022-11-09T15:17:33;1.63;;;1.45;;
12177;SDS011;6152;48.728;9.256;2022-11-09T15:20:21;1.30;;;1.20;;
12177;SDS011;6152;48.728;9.256;2022-11-09T15:22:56;3.63;;;1.90;;
12177;SDS011;6152;48.728;9.256;2022-11-09T15:27:59;4.38;;;2.65;;
12177;SDS011;6152;48.728;9.256;2022-11-09T15:30:39;5.78;;;1.80;;
12177;SDS011;6152;48.728;9.256;2022-11-09T15:35:59;1.95;;;1.63;;
12177;SDS011;6152;48.728;9.256;2022-11-09T15:41:12;2.08;;;1.75;;
12177;SDS011;6152;48.728;9.256;2022-11-09T15:43:43;2.05;;;1.92;;
12177;SDS011;6152;48.728;9.256;2022-11-09T15:46:14;2.33;;;1.95;;
12177;SDS011;6152;48.728;9.256;2022-11-09T15:48:43;5.93;;;2.80;;
12177;SDS011;6152;48.728;9.256;2022-11-09T15:51:10;2.67;;;2.05;;
12177;SDS011;6152;48.728;9.256;2022-11-09T15:53:38;4.05;;;2.53;;
12177;SDS011;6152;48.728;9.256;2022-11-09T15:56:04;2.63;;;2.42;;
12177;SDS011;6152;48.728;9.256;2022-11-09T15:58:34;2.90;;;2.63;;
12177;SDS011;6152;48.728;9.256;2022-11-09T16:01:00;3.08;;;2.55;;
12177;SDS011;6152;48.728;9.256;2022-11-09T16:03:26;2.83;;;2.63;;
12177;SDS011;6152;48.728;9.256;2022-11-09T16:05:52;3.80;;;2.67;;
12177;SDS011;6152;48.728;9.256;2022-11-09T16:08:18;1.98;;;1.83;;
12177;SDS011;6152;48.728;9.256;2022-11-09T16:10:44;1.95;;;1.85;;
12177;SDS011;6152;48.728;9.256;2022-11-09T16:13:10;2.05;;;1.90;;
12177;SDS011;6152;48.728;9.256;2022-11-09T16:15:37;2.97;;;2.17;;
12177;SDS011;6152;48.728;9.256;2022-11-09T16:18:03;2.92;;;2.50;;
12177;SDS011;6152;48.728;9.256;2022-11-09T16:20:30;7.18;;;2.70;;
12177;SDS011;6152;48.728;9.256;2022-11-09T16:22:56;4.55;;;2.40;;
12177;SDS011;6152;48.728;9.256;2022-11-09T16:25:22;2.65;;;2.45;;
12177;SDS011;6152;48.728;9.256;2022-11-09T16:27:49;2.50;;;2.30;;
12177;SDS011;6152;48.728;9.256;2022-11-09T16:30:15;3.83;;;2.70;;
12177;SDS011;6152;48.728;9.256;2022-11-09T16:32:42;7.05;;;3.40;;
12177;SDS011;6152;48.728;9.256;2022-11-09T16:35:08;3.38;;;3.08;;
12177;SDS011;6152;48.728;9.256;2022-11-09T16:37:35;4.55;;;3.17;;
12177;SDS011;6152;48.728;9.256;2022-11-09T16:40:05;3.58;;;3.13;;
12177;SDS011;6152;48.728;9.256;2022-11-09T16:42:33;3.60;;;3.30;;
12177;SDS011;6152;48.728;9.256;2022-11-09T16:45:03;3.13;;;2.60;;
12177;SDS011;6152;48.728;9.256;2022-11-09T16:47:36;3.20;;;2.90;;
12177;SDS011;6152;48.728;9.256;2022-11-09T16:50:08;5.20;;;3.03;;
12177;SDS011;6152;48.728;9.256;2022-11-09T16:52:34;3.35;;;2.42;;
12177;SDS011;6152;48.728;9.256;2022-11-09T16:55:00;4.10;;;3.22;;
12177;SDS011;6152;48.728;9.256;2022-11-09T16:57:27;5.00;;;2.92;;
12177;SDS011;6152;48.728;9.256;2022-11-09T16:59:53;3.85;;;2.80;;
12177;SDS011;6152;48.728;9.256;2022-11-09T17:02:19;2.47;;;2.33;;
12177;SDS011;6152;48.728;9.256;2022-11-09T17:04:45;3.88;;;2.40;;
12177;SDS011;6152;48.728;9.256;2022-11-09T17:07:11;2.75;;;2.55;;
12177;SDS011;6152;48.728;9.256;2022-11-09T17:09:37;3.47;;;2.45;;
12177;SDS011;6152;48.728;9.256;2022-11-09T17:12:03;3.15;;;2.85;;